createdAt,value
2022-09-25T00:00:27.649Z,100262.05
2022-09-25T00:02:59.014Z,100259.84
2022-09-25T00:05:31.044Z,100258.48
2022-09-25T00:08:22.819Z,100257.46
2022-09-25T00:10:54.163Z,100252.02
2022-09-25T00:13:26.158Z,100250.83
2022-09-25T00:15:59.039Z,100251.69
2022-09-25T00:18:50.939Z,100252.90
2022-09-25T00:21:22.264Z,100252.58
2022-09-25T00:23:56.520Z,100250.88
2022-09-25T00:26:29.933Z,100247.83
2022-09-25T00:29:19.088Z,100253.63
2022-09-25T00:32:15.302Z,100253.80
2022-09-25T00:34:57.478Z,100255.34
2022-09-25T00:37:29.877Z,100253.98
2022-09-25T00:40:03.515Z,100252.48
2022-09-25T00:42:36.513Z,100251.62
2022-09-25T00:45:09.252Z,100249.25
2022-09-25T00:47:56.718Z,100243.30
2022-09-25T00:50:37.431Z,100241.45
2022-09-25T00:53:13.824Z,100240.95
2022-09-25T00:55:47.644Z,100239.08
2022-09-25T00:58:27.021Z,100238.07
2022-09-25T01:00:58.280Z,100236.19
2022-09-25T01:03:29.598Z,100240.61
2022-09-25T01:06:02.244Z,100243.17
2022-09-25T01:08:38.260Z,100247.61
2022-09-25T01:11:09.980Z,100243.54
2022-09-25T01:13:41.460Z,100247.80
2022-09-25T01:16:21.917Z,100241.33
2022-09-25T01:19:07.814Z,100242.50
2022-09-25T01:21:51.594Z,100240.63
2022-09-25T01:24:47.008Z,100239.10
2022-09-25T01:27:53.630Z,100238.77
2022-09-25T01:30:25.101Z,100236.73
2022-09-25T01:33:04.497Z,100237.58
2022-09-25T01:35:46.924Z,100234.85
2022-09-25T01:38:26.993Z,100234.85
2022-09-25T01:41:07.572Z,100234.51
2022-09-25T01:43:43.213Z,100233.50
2022-09-25T01:46:21.877Z,100234.00
2022-09-25T01:49:00.416Z,100230.61
2022-09-25T01:51:51.464Z,100227.04
2022-09-25T01:54:36.377Z,100224.65
2022-09-25T01:57:14.730Z,100225.85
2022-09-25T01:59:50.791Z,100226.86
2022-09-25T02:02:27.882Z,100222.61
2022-09-25T02:05:06.081Z,100221.77
2022-09-25T02:07:43.535Z,100222.09
2022-09-25T02:10:19.200Z,100218.86
2022-09-25T02:12:53.658Z,100220.23
2022-09-25T02:15:31.222Z,100219.73
2022-09-25T02:18:22.170Z,100222.95
2022-09-25T02:21:10.335Z,100218.18
2022-09-25T02:23:51.157Z,100217.00
2022-09-25T02:26:27.829Z,100208.48
2022-09-25T02:29:00.052Z,100206.79
2022-09-25T02:31:36.817Z,100204.91
2022-09-25T02:34:48.408Z,100196.08
2022-09-25T02:37:20.586Z,100192.66
2022-09-25T02:40:12.595Z,100194.21
2022-09-25T02:42:50.936Z,100196.76
2022-09-25T02:45:37.345Z,100198.64
2022-09-25T02:48:30.613Z,100196.27
2022-09-25T02:51:11.172Z,100195.58
2022-09-25T02:54:09.838Z,100194.91
2022-09-25T02:57:20.847Z,100188.61
2022-09-25T02:59:56.253Z,100187.42
2022-09-25T03:03:02.595Z,100185.05
2022-09-25T03:05:57.069Z,100186.23
2022-09-25T03:08:39.689Z,100185.89
2022-09-25T03:11:14.874Z,100184.70
2022-09-25T03:13:46.963Z,100183.34
2022-09-25T03:16:28.295Z,100186.76
2022-09-25T03:19:10.593Z,100186.92
2022-09-25T03:22:01.952Z,100190.32
2022-09-25T03:24:33.451Z,100186.23
2022-09-25T03:27:04.563Z,100182.48
2022-09-25T03:29:56.439Z,100182.14
2022-09-25T03:32:49.214Z,100184.68
2022-09-25T03:35:20.231Z,100184.69
2022-09-25T03:38:12.608Z,100185.20
2022-09-25T03:40:43.988Z,100185.02
2022-09-25T03:43:49.374Z,100187.23
2022-09-25T03:46:40.886Z,100189.61
2022-09-25T03:49:15.118Z,100190.14
2022-09-25T03:51:46.108Z,100189.46
2022-09-25T03:54:17.272Z,100185.71
2022-09-25T03:57:08.540Z,100181.47
2022-09-25T03:59:50.845Z,100181.80
2022-09-25T04:02:22.006Z,100179.94
2022-09-25T04:04:55.166Z,100184.52
2022-09-25T04:07:27.227Z,100188.80
2022-09-25T04:09:58.360Z,100188.29
2022-09-25T04:12:29.733Z,100187.27
2022-09-25T04:15:04.033Z,100184.88
2022-09-25T04:17:35.792Z,100185.05
2022-09-25T04:20:07.621Z,100192.70
2022-09-25T04:22:38.511Z,100193.21
2022-09-25T04:25:10.727Z,100188.80
2022-09-25T04:27:41.700Z,100189.13
2022-09-25T04:30:14.338Z,100185.55
2022-09-25T04:33:03.077Z,100184.54
2022-09-25T04:35:34.037Z,100184.52
2022-09-25T04:38:05.382Z,100184.52
2022-09-25T04:40:37.005Z,100179.26
2022-09-25T04:43:08.958Z,100179.08
2022-09-25T04:45:40.039Z,100176.69
2022-09-25T04:48:11.188Z,100173.63
2022-09-25T04:50:48.429Z,100173.81
2022-09-25T04:53:19.697Z,100174.30
2022-09-25T04:55:51.905Z,100175.48
2022-09-25T04:58:23.439Z,100176.50
2022-09-25T05:00:55.104Z,100175.11
2022-09-25T05:03:26.635Z,100169.13
2022-09-25T05:05:57.724Z,100165.68
2022-09-25T05:08:28.857Z,100165.57
2022-09-25T05:10:59.737Z,100162.94
2022-09-25T05:13:30.642Z,100160.05
2022-09-25T05:16:01.732Z,100162.18
2022-09-25T05:18:32.793Z,100162.05
2022-09-25T05:21:06.424Z,100162.01
2022-09-25T05:23:37.357Z,100161.88
2022-09-25T05:26:09.355Z,100169.51
2022-09-25T05:28:40.232Z,100170.04
2022-09-25T05:31:11.697Z,100174.52
2022-09-25T05:33:43.528Z,100171.08
2022-09-25T05:36:14.697Z,100170.59
2022-09-25T05:38:45.649Z,100175.27
2022-09-25T05:41:16.607Z,100176.48
2022-09-25T05:43:48.440Z,100178.58
2022-09-25T05:46:19.427Z,100181.30
2022-09-25T05:48:50.382Z,100181.29
2022-09-25T05:51:21.285Z,100181.85
2022-09-25T05:53:54.165Z,100182.32
2022-09-25T05:56:25.690Z,100182.45
2022-09-25T05:58:58.832Z,100176.63
2022-09-25T06:01:29.746Z,100177.21
2022-09-25T06:04:00.699Z,100177.73
2022-09-25T06:06:33.066Z,100181.00
2022-09-25T06:09:04.267Z,100183.77
2022-09-25T06:11:35.226Z,100183.66
2022-09-25T06:14:06.272Z,100186.42
2022-09-25T06:16:38.682Z,100183.58
2022-09-25T06:19:09.629Z,100177.98
2022-09-25T06:21:40.569Z,100179.69
2022-09-25T06:24:12.005Z,100180.61
2022-09-25T06:26:43.100Z,100178.33
2022-09-25T06:29:14.036Z,100176.30
2022-09-25T06:31:45.028Z,100178.09
2022-09-25T06:34:15.969Z,100174.08
2022-09-25T06:36:46.850Z,100176.91
2022-09-25T06:39:17.861Z,100174.69
2022-09-25T06:41:48.827Z,100179.86
2022-09-25T06:44:24.808Z,100178.00
2022-09-25T06:46:58.084Z,100176.02
2022-09-25T06:49:29.006Z,100176.65
2022-09-25T06:52:00.135Z,100173.08
2022-09-25T06:54:34.159Z,100169.04
2022-09-25T06:57:05.008Z,100169.67
2022-09-25T06:59:36.137Z,100165.03
2022-09-25T07:02:20.975Z,100165.30
2022-09-25T07:04:51.598Z,100163.41
2022-09-25T07:07:23.008Z,100164.48
2022-09-25T07:09:53.866Z,100159.05
2022-09-25T07:12:24.860Z,100158.36
2022-09-25T07:14:56.450Z,100154.48
2022-09-25T07:17:27.399Z,100151.27
2022-09-25T07:19:58.413Z,100151.14
2022-09-25T07:22:30.300Z,100151.23
2022-09-25T07:25:03.202Z,100149.45
2022-09-25T07:27:34.159Z,100150.04
2022-09-25T07:30:07.985Z,100153.02
2022-09-25T07:32:46.738Z,100149.79
2022-09-25T07:35:18.736Z,100149.74
2022-09-25T07:37:49.685Z,100158.29
2022-09-25T07:40:20.941Z,100154.72
2022-09-25T07:42:54.652Z,100157.41
2022-09-25T07:45:25.780Z,100156.55
2022-09-25T07:48:01.935Z,100153.37
2022-09-25T07:50:34.075Z,100155.01
2022-09-25T07:53:05.350Z,100153.02
2022-09-25T07:55:36.497Z,100150.78
2022-09-25T07:58:08.706Z,100147.36
2022-09-25T08:00:40.229Z,100145.23
2022-09-25T08:03:13.895Z,100146.42
2022-09-25T08:05:47.604Z,100149.65
2022-09-25T08:08:18.701Z,100150.21
2022-09-25T08:10:50.218Z,100148.86
2022-09-25T08:13:21.464Z,100141.56
2022-09-25T08:15:52.599Z,100138.89
2022-09-25T08:18:26.161Z,100141.02
2022-09-25T08:21:01.556Z,100139.73
2022-09-25T08:23:32.920Z,100137.84
2022-09-25T08:26:05.172Z,100134.63
2022-09-25T08:28:38.587Z,100136.09
2022-09-25T08:31:09.788Z,100138.38
2022-09-25T08:33:45.962Z,100137.69
2022-09-25T08:36:17.855Z,100132.35
2022-09-25T08:38:53.107Z,100137.88
2022-09-25T08:41:29.286Z,100134.16
2022-09-25T08:44:07.133Z,100134.05
2022-09-25T08:47:04.881Z,100129.02
2022-09-25T08:49:40.233Z,100124.64
2022-09-25T08:52:16.420Z,100126.23
2022-09-25T08:54:47.518Z,100125.06
2022-09-25T08:57:30.788Z,100124.20
2022-09-25T09:00:11.602Z,100119.70
2022-09-25T09:02:46.912Z,100118.82
2022-09-25T09:05:21.979Z,100115.60
2022-09-25T09:07:59.597Z,100114.66
2022-09-25T09:10:41.396Z,100109.80
2022-09-25T09:13:21.691Z,100106.02
2022-09-25T09:16:01.032Z,100105.42
2022-09-25T09:18:37.445Z,100105.02
2022-09-25T09:21:17.542Z,100103.17
2022-09-25T09:24:07.478Z,100102.29
2022-09-25T09:26:50.210Z,100095.59
2022-09-25T09:29:35.459Z,100094.60
2022-09-25T09:32:17.652Z,100093.35
2022-09-25T09:35:06.669Z,100094.41
2022-09-25T09:37:57.890Z,100090.98
2022-09-25T09:40:54.693Z,100087.34
2022-09-25T09:43:40.016Z,100083.38
2022-09-25T09:46:22.758Z,100077.69
2022-09-25T09:49:05.482Z,100075.20
2022-09-25T09:51:41.423Z,100068.41
2022-09-25T09:54:17.325Z,100070.41
2022-09-25T09:56:53.081Z,100060.57
2022-09-25T09:59:27.770Z,100054.95
2022-09-25T10:02:09.309Z,100054.87
2022-09-25T10:04:42.624Z,100048.33
2022-09-25T10:07:22.730Z,100042.43
2022-09-25T10:09:54.426Z,100037.50
2022-09-25T10:12:31.262Z,100035.02
2022-09-25T10:15:08.982Z,100038.38
2022-09-25T10:17:41.027Z,100036.63
2022-09-25T10:20:21.433Z,100033.52
2022-09-25T10:22:56.800Z,100031.33
2022-09-25T10:25:40.223Z,100029.15
2022-09-25T10:28:29.210Z,100026.02
2022-09-25T10:31:02.007Z,100027.20
2022-09-25T10:33:34.787Z,100025.15
2022-09-25T10:36:06.201Z,100025.48
2022-09-25T10:38:48.313Z,100019.80
2022-09-25T10:41:22.286Z,100019.51
2022-09-25T10:43:56.163Z,100020.16
2022-09-25T10:46:50.146Z,100014.83
2022-09-25T10:49:43.919Z,100016.05
2022-09-25T10:52:18.707Z,100011.02
2022-09-25T10:54:52.520Z,100012.98
2022-09-25T10:57:34.643Z,100007.79
2022-09-25T11:00:20.391Z,100003.17
2022-09-25T11:02:56.565Z,100005.11
2022-09-25T11:05:31.934Z,100000.23
2022-09-25T11:08:06.431Z,99997.46
2022-09-25T11:10:48.434Z,99990.15
2022-09-25T11:13:26.249Z,99989.38
2022-09-25T11:16:09.626Z,99984.70
2022-09-25T11:18:45.253Z,99979.36
2022-09-25T11:21:29.568Z,99982.62
2022-09-25T11:24:16.202Z,99979.69
2022-09-25T11:26:53.320Z,99985.55
2022-09-25T11:29:35.093Z,99977.73
2022-09-25T11:32:13.981Z,99968.70
2022-09-25T11:35:01.389Z,99964.23
2022-09-25T11:37:41.240Z,99965.63
2022-09-25T11:40:48.777Z,99963.29
2022-09-25T11:43:31.425Z,99963.52
2022-09-25T11:46:07.718Z,99965.66
2022-09-25T11:48:50.971Z,99963.87
2022-09-25T11:51:36.162Z,99964.02
2022-09-25T11:54:33.299Z,99961.08
2022-09-25T11:57:11.731Z,99964.74
2022-09-25T11:59:57.293Z,99964.77
2022-09-25T12:02:50.643Z,99958.27
2022-09-25T12:05:48.165Z,99955.34
2022-09-25T12:08:44.326Z,99950.05
2022-09-25T12:11:25.746Z,99943.69
2022-09-25T12:14:03.936Z,99950.95
2022-09-25T12:16:41.957Z,99943.98
2022-09-25T12:19:36.164Z,99943.83
2022-09-25T12:22:16.762Z,99942.58
2022-09-25T12:25:01.796Z,99932.23
2022-09-25T12:27:45.222Z,99932.34
2022-09-25T12:30:24.079Z,99934.42
2022-09-25T12:33:10.329Z,99924.58
2022-09-25T12:35:47.936Z,99919.30
2022-09-25T12:38:29.168Z,99916.69
2022-09-25T12:41:07.372Z,99912.42
2022-09-25T12:43:45.518Z,99913.20
2022-09-25T12:46:23.620Z,99909.40
2022-09-25T12:49:02.061Z,99911.40
2022-09-25T12:51:40.575Z,99905.73
2022-09-25T12:54:23.987Z,99901.27
2022-09-25T12:57:02.125Z,99896.48
2022-09-25T12:59:46.068Z,99901.30
2022-09-25T13:02:28.173Z,99898.81
2022-09-25T13:05:09.452Z,99895.42
2022-09-25T13:07:47.042Z,99894.39
2022-09-25T13:10:30.986Z,99886.88
2022-09-25T13:13:10.704Z,99888.19
2022-09-25T13:15:45.181Z,99885.56
2022-09-25T13:18:20.106Z,99885.73
2022-09-25T13:20:55.991Z,99882.80
2022-09-25T13:23:33.587Z,99881.94
2022-09-25T13:26:13.384Z,99879.71
2022-09-25T13:28:53.885Z,99878.00
2022-09-25T13:31:27.903Z,99875.81
2022-09-25T13:34:08.134Z,99870.93
2022-09-25T13:36:46.461Z,99871.41
2022-09-25T13:39:46.269Z,99870.98
2022-09-25T13:42:24.845Z,99869.52
2022-09-25T13:45:30.457Z,99867.11
2022-09-25T13:48:09.992Z,99869.65
2022-09-25T13:50:43.735Z,99868.04
2022-09-25T13:53:23.793Z,99863.59
2022-09-25T13:56:27.248Z,99862.49
2022-09-25T13:59:35.986Z,99860.48
2022-09-25T14:02:43.423Z,99861.54
2022-09-25T14:05:19.557Z,99858.27
2022-09-25T14:07:55.808Z,99855.56
2022-09-25T14:10:27.438Z,99853.02
2022-09-25T14:13:01.022Z,99853.48
2022-09-25T14:15:36.289Z,99853.97
2022-09-25T14:18:10.836Z,99852.91
2022-09-25T14:20:44.182Z,99851.98
2022-09-25T14:23:23.650Z,99851.95
2022-09-25T14:26:02.095Z,99857.07
2022-09-25T14:28:34.558Z,99855.34
2022-09-25T14:31:21.673Z,99850.64
2022-09-25T14:34:17.289Z,99848.10
2022-09-25T14:37:03.811Z,99844.02
2022-09-25T14:39:44.460Z,99833.83
2022-09-25T14:42:34.159Z,99829.31
2022-09-25T14:45:22.611Z,99825.48
2022-09-25T14:47:57.380Z,99826.33
2022-09-25T14:50:31.429Z,99825.94
2022-09-25T14:53:08.270Z,99820.61
2022-09-25T14:55:46.446Z,99823.71
2022-09-25T14:58:22.927Z,99816.98
2022-09-25T15:00:56.946Z,99811.44
2022-09-25T15:03:33.733Z,99808.80
2022-09-25T15:06:04.566Z,99810.27
2022-09-25T15:08:38.949Z,99807.15
2022-09-25T15:11:15.448Z,99805.92
2022-09-25T15:13:47.483Z,99806.21
2022-09-25T15:16:40.169Z,99808.40
2022-09-25T15:19:20.544Z,99808.07
2022-09-25T15:21:52.381Z,99808.27
2022-09-25T15:24:27.914Z,99805.20
2022-09-25T15:27:03.907Z,99808.64
2022-09-25T15:29:38.469Z,99803.40
2022-09-25T15:32:17.398Z,99799.41
2022-09-25T15:34:49.034Z,99799.38
2022-09-25T15:37:28.199Z,99796.81
2022-09-25T15:40:02.111Z,99795.12
2022-09-25T15:42:33.090Z,99794.63
2022-09-25T15:45:29.106Z,99796.36
2022-09-25T15:48:00.790Z,99798.80
2022-09-25T15:50:32.181Z,99796.76
2022-09-25T15:53:03.628Z,99796.61
2022-09-25T15:55:34.566Z,99795.20
2022-09-25T15:58:13.793Z,99795.38
2022-09-25T16:01:20.366Z,99798.13
2022-09-25T16:04:12.602Z,99791.78
2022-09-25T16:06:46.717Z,99795.61
2022-09-25T16:09:30.474Z,99798.19
2022-09-25T16:12:31.935Z,99791.84
2022-09-25T16:15:30.031Z,99792.18
2022-09-25T16:18:05.955Z,99794.23
2022-09-25T16:20:40.680Z,99788.65
2022-09-25T16:23:29.084Z,99787.88
2022-09-25T16:26:00.628Z,99781.95
2022-09-25T16:28:35.389Z,99778.91
2022-09-25T16:31:09.125Z,99779.18
2022-09-25T16:33:42.458Z,99779.08
2022-09-25T16:36:18.359Z,99781.05
2022-09-25T16:39:12.658Z,99774.80
2022-09-25T16:41:48.595Z,99768.41
2022-09-25T16:44:21.598Z,99770.50
2022-09-25T16:47:22.428Z,99773.46
2022-09-25T16:49:53.380Z,99774.89
2022-09-25T16:52:27.895Z,99777.35
2022-09-25T16:55:00.856Z,99774.27
2022-09-25T16:57:35.656Z,99772.44
2022-09-25T17:00:07.886Z,99773.20
2022-09-25T17:02:43.253Z,99773.98
2022-09-25T17:05:19.446Z,99772.13
2022-09-25T17:07:52.913Z,99768.73
2022-09-25T17:10:26.460Z,99770.74
2022-09-25T17:13:04.193Z,99771.77
2022-09-25T17:15:40.976Z,99772.08
2022-09-25T17:18:22.280Z,99773.55
2022-09-25T17:20:56.139Z,99773.48
2022-09-25T17:23:28.401Z,99771.39
2022-09-25T17:26:03.864Z,99771.71
2022-09-25T17:28:38.006Z,99777.53
2022-09-25T17:31:10.586Z,99775.42
2022-09-25T17:33:42.716Z,99774.51
2022-09-25T17:36:16.474Z,99775.16
2022-09-25T17:38:48.273Z,99776.34
2022-09-25T17:41:27.282Z,99776.67
2022-09-25T17:44:00.842Z,99777.34
2022-09-25T17:46:36.487Z,99774.75
2022-09-25T17:49:08.110Z,99769.95
2022-09-25T17:51:41.118Z,99768.95
2022-09-25T17:54:13.784Z,99765.17
2022-09-25T17:56:46.508Z,99763.80
2022-09-25T17:59:17.869Z,99759.31
2022-09-25T18:01:49.056Z,99758.55
2022-09-25T18:04:25.651Z,99757.17
2022-09-25T18:07:00.077Z,99755.95
2022-09-25T18:09:31.420Z,99750.05
2022-09-25T18:12:04.234Z,99755.03
2022-09-25T18:14:35.527Z,99753.65
2022-09-25T18:17:06.445Z,99754.31
2022-09-25T18:19:55.260Z,99752.42
2022-09-25T18:22:29.612Z,99753.98
2022-09-25T18:25:00.993Z,99751.04
2022-09-25T18:27:35.425Z,99751.24
2022-09-25T18:30:12.130Z,99748.42
2022-09-25T18:32:44.494Z,99750.27
2022-09-25T18:35:16.645Z,99751.00
2022-09-25T18:37:48.706Z,99749.55
2022-09-25T18:40:21.522Z,99745.52
2022-09-25T18:42:53.682Z,99745.42
2022-09-25T18:45:25.439Z,99743.89
2022-09-25T18:48:00.176Z,99740.26
2022-09-25T18:50:32.534Z,99742.05
2022-09-25T18:53:03.833Z,99738.43
2022-09-25T18:55:35.120Z,99736.98
2022-09-25T18:58:08.347Z,99740.16
2022-09-25T19:00:40.276Z,99739.05
2022-09-25T19:03:11.950Z,99740.17
2022-09-25T19:05:44.046Z,99739.38
2022-09-25T19:08:15.296Z,99740.85
2022-09-25T19:10:46.517Z,99740.24
2022-09-25T19:13:18.019Z,99744.27
2022-09-25T19:15:49.950Z,99746.39
2022-09-25T19:18:21.700Z,99740.23
2022-09-25T19:20:54.740Z,99742.63
2022-09-25T19:23:27.497Z,99740.58
2022-09-25T19:26:05.182Z,99740.99
2022-09-25T19:28:37.295Z,99741.59
2022-09-25T19:31:13.569Z,99737.74
2022-09-25T19:33:45.570Z,99732.58
2022-09-25T19:36:19.505Z,99730.63
2022-09-25T19:38:51.313Z,99724.77
2022-09-25T19:41:24.992Z,99725.92
2022-09-25T19:43:59.228Z,99718.46
2022-09-25T19:46:32.189Z,99717.05
2022-09-25T19:49:03.825Z,99715.15
2022-09-25T19:51:35.013Z,99712.93
2022-09-25T19:54:07.658Z,99718.41
2022-09-25T19:56:42.306Z,99713.81
2022-09-25T19:59:15.902Z,99712.31
2022-09-25T20:01:47.850Z,99714.45
2022-09-25T20:04:19.503Z,99712.98
2022-09-25T20:06:51.296Z,99711.67
2022-09-25T20:09:22.860Z,99710.51
2022-09-25T20:11:54.329Z,99711.07
2022-09-25T20:14:26.441Z,99708.85
2022-09-25T20:16:59.455Z,99709.38
2022-09-25T20:19:31.710Z,99709.94
2022-09-25T20:22:03.020Z,99711.69
2022-09-25T20:24:35.867Z,99708.61
2022-09-25T20:27:09.522Z,99711.20
2022-09-25T20:29:40.749Z,99712.54
2022-09-25T20:32:12.110Z,99713.27
2022-09-25T20:34:43.252Z,99718.74
2022-09-25T20:37:23.742Z,99714.62
2022-09-25T20:39:55.960Z,99716.66
2022-09-25T20:42:27.150Z,99712.66
2022-09-25T20:44:58.211Z,99712.44
2022-09-25T20:47:33.736Z,99712.05
2022-09-25T20:50:05.842Z,99709.77
2022-09-25T20:52:37.579Z,99709.89
2022-09-25T20:55:10.741Z,99711.40
2022-09-25T20:57:41.677Z,99713.23
2022-09-25T21:00:19.085Z,99708.84
2022-09-25T21:02:50.688Z,99707.73
2022-09-25T21:05:21.963Z,99711.96
2022-09-25T21:07:53.203Z,99711.19
2022-09-25T21:10:24.331Z,99710.77
2022-09-25T21:12:55.243Z,99709.17
2022-09-25T21:15:27.932Z,99708.89
2022-09-25T21:17:59.127Z,99709.46
2022-09-25T21:20:30.066Z,99708.50
2022-09-25T21:23:01.009Z,99705.52
2022-09-25T21:25:31.917Z,99704.01
2022-09-25T21:28:03.072Z,99705.77
2022-09-25T21:30:34.228Z,99706.84
2022-09-25T21:33:05.141Z,99708.57
2022-09-25T21:35:36.105Z,99707.05
2022-09-25T21:38:07.211Z,99706.60
2022-09-25T21:40:38.274Z,99705.27
2022-09-25T21:43:09.198Z,99704.29
2022-09-25T21:45:40.323Z,99705.00
2022-09-25T21:48:12.419Z,99702.46
2022-09-25T21:50:54.717Z,99701.98
2022-09-25T21:53:26.488Z,99695.32
2022-09-25T21:56:04.641Z,99695.01
2022-09-25T21:58:37.028Z,99689.58
2022-09-25T22:01:11.135Z,99684.99
2022-09-25T22:03:44.911Z,99681.31
2022-09-25T22:06:20.101Z,99679.52
2022-09-25T22:08:50.450Z,99678.90
2022-09-25T22:11:22.474Z,99674.81
2022-09-25T22:13:54.627Z,99672.81
2022-09-25T22:16:27.481Z,99668.07
2022-09-25T22:19:02.019Z,99668.65
2022-09-25T22:21:34.466Z,99665.78
2022-09-25T22:24:06.902Z,99663.80
2022-09-25T22:26:40.607Z,99660.79
2022-09-25T22:29:12.629Z,99662.36
2022-09-25T22:31:44.340Z,99662.73
2022-09-25T22:34:21.679Z,99663.34
2022-09-25T22:36:59.178Z,99659.61
2022-09-25T22:39:31.435Z,99660.02
2022-09-25T22:42:02.407Z,99661.29
2022-09-25T22:44:33.279Z,99657.38
2022-09-25T22:47:04.260Z,99653.96
2022-09-25T22:49:35.102Z,99651.95
2022-09-25T22:52:06.452Z,99650.95
2022-09-25T22:54:37.346Z,99645.71
2022-09-25T22:57:08.241Z,99643.39
2022-09-25T22:59:39.147Z,99638.87
2022-09-25T23:02:12.397Z,99637.08
2022-09-25T23:04:45.062Z,99637.98
2022-09-25T23:07:16.429Z,99633.61
2022-09-25T23:09:47.329Z,99629.70
2022-09-25T23:12:18.163Z,99627.02
2022-09-25T23:14:49.017Z,99623.80
2022-09-25T23:17:19.941Z,99618.73
2022-09-25T23:19:50.802Z,99616.89
2022-09-25T23:22:21.645Z,99613.66
2022-09-25T23:24:52.552Z,99613.35
2022-09-25T23:27:23.411Z,99614.41
2022-09-25T23:29:54.248Z,99611.05
2022-09-25T23:32:25.155Z,99613.32
2022-09-25T23:34:56.033Z,99614.36
2022-09-25T23:37:27.412Z,99610.30
2022-09-25T23:39:58.227Z,99611.83
2022-09-25T23:42:29.512Z,99610.81
2022-09-25T23:45:00.330Z,99609.84
2022-09-25T23:47:31.226Z,99606.10
2022-09-25T23:50:04.635Z,99605.44
2022-09-25T23:52:35.932Z,99605.65
2022-09-25T23:55:07.508Z,99607.40
2022-09-25T23:57:39.255Z,99606.27
